Time;durP1;ratioP1;P1;durP2;ratioP2;P2;SDS_P1;SDS_P2;PMS_P1;PMS_P2;Temp;Humidity;BMP_temperature;BMP_pressure;BME280_temperature;BME280_humidity;BME280_pressure;Samples;Min_cycle;Max_cycle;Signal;HPM_P1;HPM_P2
2021/09/10 00:01:39;;;;;;;16.15;11.45;;;17.80;66.70;;;;;;4999547;28;20061;-64
2021/09/10 00:04:04;;;;;;;15.52;11.25;;;17.80;66.50;;;;;;5017059;28;20371;-64
2021/09/10 00:06:30;;;;;;;14.18;11.00;;;17.80;66.60;;;;;;5019018;28;20381;-64
2021/09/10 00:08:57;;;;;;;12.63;10.32;;;17.80;66.50;;;;;;5019261;28;20061;-64
2021/09/10 00:11:24;;;;;;;13.80;10.30;;;17.80;66.40;;;;;;5019105;28;20026;-65
2021/09/10 00:13:49;;;;;;;13.43;10.45;;;17.80;66.20;;;;;;5011687;28;20037;-64
2021/09/10 00:16:15;;;;;;;13.10;9.45;;;17.80;66.40;;;;;;5004903;28;20031;-64
2021/09/10 00:18:41;;;;;;;13.27;9.40;;;17.80;66.20;;;;;;4998226;28;20027;-64
2021/09/10 00:21:07;;;;;;;12.85;8.95;;;17.80;66.00;;;;;;5010554;28;20038;-64
2021/09/10 00:23:32;;;;;;;12.52;8.93;;;17.80;66.20;;;;;;5025895;28;20076;-64
2021/09/10 00:25:58;;;;;;;11.70;9.10;;;17.80;66.00;;;;;;5017696;28;20382;-64
2021/09/10 00:28:25;;;;;;;11.68;9.30;;;17.80;66.00;;;;;;5017342;28;20049;-64
2021/09/10 00:30:51;;;;;;;12.85;9.75;;;17.80;66.20;;;;;;5009900;28;20081;-64
2021/09/10 00:33:17;;;;;;;12.48;9.68;;;17.80;66.10;;;;;;5015389;28;20029;-64
2021/09/10 00:35:43;;;;;;;13.13;9.27;;;17.70;66.10;;;;;;5008076;28;20026;-64
2021/09/10 00:38:08;;;;;;;13.00;8.98;;;17.80;66.20;;;;;;4998046;28;20073;-64
2021/09/10 00:40:34;;;;;;;12.30;9.88;;;17.70;66.00;;;;;;5007432;28;20375;-64
2021/09/10 00:43:00;;;;;;;12.45;9.45;;;17.80;66.00;;;;;;5017683;28;20076;-64
2021/09/10 00:45:25;;;;;;;12.18;9.27;;;17.70;66.00;;;;;;5015619;28;20021;-64
2021/09/10 00:47:52;;;;;;;16.27;9.18;;;17.70;66.00;;;;;;4997690;28;20105;-64
2021/09/10 00:50:18;;;;;;;11.90;9.05;;;17.70;66.00;;;;;;5014514;28;20017;-65
2021/09/10 00:52:44;;;;;;;12.20;8.93;;;17.70;66.10;;;;;;5015488;28;20030;-64
2021/09/10 00:55:09;;;;;;;10.85;8.40;;;17.70;66.20;;;;;;5018260;28;20030;-65
2021/09/10 00:57:35;;;;;;;11.05;8.98;;;17.70;66.10;;;;;;5017595;28;20026;-64
2021/09/10 01:00:01;;;;;;;12.18;9.40;;;17.70;66.10;;;;;;5016507;28;20060;-64
2021/09/10 01:02:27;;;;;;;11.10;8.98;;;17.60;66.00;;;;;;5017668;28;20073;-64
2021/09/10 01:04:55;;;;;;;12.52;8.48;;;17.60;66.00;;;;;;5002958;28;20026;-64
2021/09/10 01:07:23;;;;;;;10.75;8.85;;;17.60;66.00;;;;;;5006033;28;20054;-64
2021/09/10 01:09:49;;;;;;;12.43;8.45;;;17.60;66.10;;;;;;5036306;28;20030;-64
2021/09/10 01:12:16;;;;;;;11.65;8.98;;;17.50;66.00;;;;;;5017542;28;20021;-64
2021/09/10 01:14:42;;;;;;;10.00;8.90;;;17.50;66.10;;;;;;5012293;28;20053;-64
2021/09/10 01:17:08;;;;;;;10.68;8.07;;;17.50;66.10;;;;;;4997680;28;20372;-64
2021/09/10 01:19:36;;;;;;;11.43;8.75;;;17.50;66.10;;;;;;5005909;28;20036;-64
2021/09/10 01:22:05;;;;;;;13.52;8.68;;;17.40;66.20;;;;;;5015228;28;20050;-64
2021/09/10 01:24:35;;;;;;;10.13;8.00;;;17.40;66.10;;;;;;5016741;28;20037;-64
2021/09/10 01:27:01;;;;;;;13.27;9.90;;;17.40;66.10;;;;;;5017154;28;20057;-64
2021/09/10 01:29:28;;;;;;;15.93;10.23;;;17.40;66.10;;;;;;5016493;28;20080;-64
2021/09/10 01:31:54;;;;;;;15.00;10.45;;;17.40;66.10;;;;;;5017251;28;20470;-64
2021/09/10 01:34:20;;;;;;;15.20;11.23;;;17.40;66.10;;;;;;5016986;28;20387;-64
2021/09/10 01:36:47;;;;;;;19.58;11.35;;;17.40;66.20;;;;;;5016628;28;20037;-64
2021/09/10 01:39:12;;;;;;;15.02;11.02;;;17.40;66.10;;;;;;5007774;28;20062;-65
2021/09/10 01:41:38;;;;;;;15.90;10.85;;;17.40;66.00;;;;;;5017529;28;20025;-64
2021/09/10 01:44:04;;;;;;;16.95;10.85;;;17.40;66.00;;;;;;5016011;28;20030;-64
2021/09/10 01:46:30;;;;;;;17.40;11.68;;;17.40;65.90;;;;;;5016936;28;20053;-64
2021/09/10 01:48:55;;;;;;;19.10;12.20;;;17.40;65.90;;;;;;5016763;28;20100;-64
2021/09/10 01:51:31;;;;;;;18.05;11.55;;;17.40;66.00;;;;;;5016588;28;20030;-64
2021/09/10 01:53:59;;;;;;;17.25;12.48;;;17.40;65.90;;;;;;5009807;28;20033;-65
2021/09/10 01:56:25;;;;;;;18.20;12.00;;;17.40;66.10;;;;;;5008143;28;20030;-64
2021/09/10 01:58:51;;;;;;;18.98;11.32;;;17.40;66.10;;;;;;5017164;28;20022;-65
2021/09/10 02:01:24;;;;;;;17.35;11.82;;;17.40;66.10;;;;;;5017259;28;20026;-64
2021/09/10 02:03:51;;;;;;;18.65;11.38;;;17.40;66.20;;;;;;5036031;28;20021;-64
2021/09/10 02:06:17;;;;;;;16.15;10.75;;;17.40;66.30;;;;;;5036840;28;20044;-64
2021/09/10 02:08:42;;;;;;;18.40;11.40;;;17.40;66.10;;;;;;5035968;28;20097;-64
2021/09/10 02:11:08;;;;;;;17.75;11.98;;;17.40;66.20;;;;;;5016677;28;20081;-64
2021/09/10 02:13:34;;;;;;;20.85;12.30;;;17.40;66.20;;;;;;5016129;28;20022;-64
2021/09/10 02:15:59;;;;;;;19.85;13.40;;;17.40;66.20;;;;;;5015997;28;20038;-64
2021/09/10 02:18:25;;;;;;;19.92;13.27;;;17.40;65.90;;;;;;5016564;28;20022;-64
2021/09/10 02:20:51;;;;;;;16.35;12.30;;;17.40;66.20;;;;;;5015770;28;20029;-64
2021/09/10 02:23:16;;;;;;;18.23;11.95;;;17.40;66.30;;;;;;5012394;28;20509;-64
2021/09/10 02:25:42;;;;;;;16.48;11.65;;;17.40;66.00;;;;;;5012336;28;20560;-64
2021/09/10 02:28:07;;;;;;;16.75;11.65;;;17.40;66.00;;;;;;5001223;28;20026;-64
2021/09/10 02:30:34;;;;;;;18.75;12.85;;;17.40;66.10;;;;;;5015577;28;20029;-64
2021/09/10 02:33:00;;;;;;;20.65;12.68;;;17.30;66.10;;;;;;5016264;28;20033;-64
2021/09/10 02:35:26;;;;;;;20.52;12.57;;;17.30;66.10;;;;;;5016195;28;20060;-64
2021/09/10 02:37:52;;;;;;;21.30;13.73;;;17.30;66.20;;;;;;5015935;28;20033;-64
2021/09/10 02:40:18;;;;;;;19.95;13.02;;;17.30;66.20;;;;;;5016713;28;20057;-64
2021/09/10 02:42:43;;;;;;;18.45;12.27;;;17.30;66.40;;;;;;5014175;28;20040;-64
2021/09/10 02:45:10;;;;;;;15.75;11.27;;;17.30;66.20;;;;;;5019522;28;20030;-64
2021/09/10 02:47:35;;;;;;;16.83;11.68;;;17.20;66.30;;;;;;5019400;28;20033;-65
2021/09/10 02:50:01;;;;;;;16.23;11.60;;;17.20;66.40;;;;;;5019516;28;20029;-64
2021/09/10 02:52:27;;;;;;;16.73;11.85;;;17.20;66.20;;;;;;5019711;28;20026;-64
2021/09/10 02:54:53;;;;;;;16.08;11.30;;;17.20;66.10;;;;;;5019834;28;20036;-64
2021/09/10 02:57:19;;;;;;;17.80;11.52;;;17.20;66.10;;;;;;5016174;28;20057;-64
2021/09/10 02:59:45;;;;;;;18.45;11.95;;;17.10;66.10;;;;;;5019721;28;20022;-64
2021/09/10 03:02:10;;;;;;;17.13;11.57;;;17.10;66.40;;;;;;5012184;28;20091;-64
2021/09/10 03:04:36;;;;;;;17.08;11.07;;;17.10;66.30;;;;;;5003490;28;20044;-64
2021/09/10 03:07:02;;;;;;;18.65;12.35;;;17.10;67.10;;;;;;5019520;28;20029;-64
2021/09/10 03:09:27;;;;;;;17.95;11.98;;;17.10;66.40;;;;;;5019340;28;20459;-64
2021/09/10 03:11:53;;;;;;;16.00;11.50;;;17.00;66.40;;;;;;5020447;28;20030;-64
2021/09/10 03:14:19;;;;;;;18.08;12.50;;;17.00;66.30;;;;;;5005763;28;20022;-64
2021/09/10 03:16:44;;;;;;;17.30;12.07;;;17.00;66.50;;;;;;5001831;28;20038;-64
2021/09/10 03:19:10;;;;;;;19.58;12.10;;;17.00;66.40;;;;;;5017580;28;20450;-64
2021/09/10 03:21:36;;;;;;;16.08;11.90;;;17.00;66.50;;;;;;5019555;28;20060;-64
2021/09/10 03:24:01;;;;;;;21.23;12.80;;;17.00;66.70;;;;;;5017704;28;20109;-64
2021/09/10 03:26:27;;;;;;;17.95;13.07;;;17.00;66.70;;;;;;5019790;28;20022;-64
2021/09/10 03:28:54;;;;;;;17.55;11.88;;;17.00;66.90;;;;;;5015020;28;20054;-64
2021/09/10 03:31:20;;;;;;;20.67;12.50;;;17.00;66.80;;;;;;5013620;28;20037;-64
2021/09/10 03:33:45;;;;;;;14.55;11.38;;;17.00;66.80;;;;;;5008530;28;20034;-64
2021/09/10 03:36:11;;;;;;;14.27;10.55;;;17.00;66.90;;;;;;4999315;28;20033;-64
2021/09/10 03:38:37;;;;;;;15.35;10.73;;;17.00;67.00;;;;;;5009920;28;20041;-64
2021/09/10 03:41:03;;;;;;;14.98;10.95;;;17.00;67.10;;;;;;5019497;28;20057;-65
2021/09/10 03:43:28;;;;;;;17.27;11.00;;;16.90;67.20;;;;;;5018048;28;20084;-64
2021/09/10 03:45:54;;;;;;;16.40;11.38;;;16.90;67.10;;;;;;5004389;28;20035;-64
2021/09/10 03:48:19;;;;;;;18.35;12.57;;;17.00;67.40;;;;;;5007286;28;20367;-64
2021/09/10 03:50:45;;;;;;;16.58;11.88;;;16.90;67.30;;;;;;5019536;28;20053;-64
2021/09/10 03:53:11;;;;;;;20.00;12.65;;;17.00;67.50;;;;;;5019489;28;20029;-64
2021/09/10 03:55:36;;;;;;;21.00;13.05;;;17.00;67.60;;;;;;5018689;28;20478;-64
2021/09/10 03:58:03;;;;;;;18.33;12.05;;;17.00;67.60;;;;;;5018741;28;20033;-64
2021/09/10 04:00:29;;;;;;;20.70;12.90;;;17.00;67.70;;;;;;5013913;28;20015;-64
2021/09/10 04:02:54;;;;;;;19.23;13.25;;;17.10;67.80;;;;;;5006194;28;20160;-64
2021/09/10 04:05:20;;;;;;;21.02;13.95;;;17.10;67.80;;;;;;5018443;28;20141;-64
2021/09/10 04:07:46;;;;;;;26.63;17.33;;;17.10;67.60;;;;;;5019091;28;20026;-64
2021/09/10 04:10:12;;;;;;;30.38;19.90;;;17.20;67.90;;;;;;5011157;28;20073;-64
2021/09/10 04:12:37;;;;;;;27.98;19.73;;;17.20;67.90;;;;;;5026032;28;20029;-64
2021/09/10 04:15:03;;;;;;;30.95;20.73;;;17.30;68.00;;;;;;5002879;28;20078;-64
2021/09/10 04:17:29;;;;;;;31.23;19.65;;;17.30;68.10;;;;;;5005636;28;20046;-64
2021/09/10 04:19:55;;;;;;;31.90;19.42;;;17.30;68.20;;;;;;4999592;28;20018;-64
2021/09/10 04:22:20;;;;;;;33.88;21.42;;;17.40;68.30;;;;;;5011796;28;20046;-64
2021/09/10 04:24:49;;;;;;;35.60;22.30;;;17.40;68.20;;;;;;5018781;28;20034;-64
2021/09/10 04:27:15;;;;;;;36.08;22.45;;;17.50;68.20;;;;;;5018853;28;20112;-64
2021/09/10 04:29:41;;;;;;;36.28;21.95;;;17.60;68.10;;;;;;5018369;28;20056;-64
2021/09/10 04:32:07;;;;;;;30.23;21.55;;;17.60;68.10;;;;;;5013873;28;20042;-64
2021/09/10 04:34:33;;;;;;;31.48;19.17;;;17.70;68.20;;;;;;5014908;28;20038;-64
2021/09/10 04:36:59;;;;;;;28.13;18.42;;;17.70;68.20;;;;;;5018661;28;20494;-64
2021/09/10 04:39:24;;;;;;;29.13;19.58;;;17.80;68.40;;;;;;5006143;28;20030;-64
2021/09/10 04:41:50;;;;;;;26.75;18.10;;;17.90;68.40;;;;;;4998398;28;20438;-64
2021/09/10 04:44:16;;;;;;;32.60;20.30;;;17.90;68.30;;;;;;5011572;28;20064;-65
2021/09/10 04:46:41;;;;;;;30.25;18.73;;;18.00;68.00;;;;;;5008791;28;20443;-64
2021/09/10 04:49:07;;;;;;;29.35;19.52;;;18.00;67.80;;;;;;5013844;28;20053;-64
2021/09/10 04:51:32;;;;;;;22.33;14.63;;;18.10;67.80;;;;;;5017183;28;20057;-64
2021/09/10 04:54:00;;;;;;;20.38;13.45;;;18.20;67.70;;;;;;5019600;28;20022;-64
2021/09/10 04:56:26;;;;;;;18.60;13.10;;;18.20;67.50;;;;;;5013875;28;20022;-65
2021/09/10 04:58:52;;;;;;;23.35;14.40;;;18.30;67.50;;;;;;5009499;28;20478;-64
2021/09/10 05:01:17;;;;;;;23.75;15.10;;;18.30;67.20;;;;;;5018262;28;20022;-64
2021/09/10 05:03:43;;;;;;;21.05;13.43;;;18.40;67.00;;;;;;5023307;28;20402;-64
2021/09/10 05:06:08;;;;;;;17.98;12.88;;;18.40;67.10;;;;;;5018905;28;20044;-64
2021/09/10 05:08:34;;;;;;;20.05;13.52;;;18.50;66.80;;;;;;5018934;28;20498;-64
2021/09/10 05:11:00;;;;;;;19.95;13.73;;;18.50;66.90;;;;;;5016386;28;20133;-64
2021/09/10 05:13:26;;;;;;;23.15;15.75;;;18.60;66.80;;;;;;5016520;28;20036;-64
2021/09/10 05:15:52;;;;;;;21.92;14.40;;;18.60;66.70;;;;;;5018234;28;20033;-64
2021/09/10 05:18:18;;;;;;;18.65;13.88;;;18.80;66.70;;;;;;5018436;28;20033;-64
2021/09/10 05:20:43;;;;;;;22.55;15.35;;;18.90;66.50;;;;;;5012112;28;20556;-64
2021/09/10 05:23:09;;;;;;;22.85;14.32;;;19.00;66.20;;;;;;5015863;28;20042;-65
2021/09/10 05:25:34;;;;;;;21.27;14.18;;;19.00;66.10;;;;;;5012125;28;20038;-65
2021/09/10 05:28:00;;;;;;;20.58;15.55;;;19.00;65.70;;;;;;5011770;28;20029;-65
2021/09/10 05:30:26;;;;;;;17.48;12.35;;;19.10;65.90;;;;;;5012308;28;20367;-65
2021/09/10 05:32:51;;;;;;;16.48;11.80;;;19.10;65.60;;;;;;5008744;28;20489;-65
2021/09/10 05:35:17;;;;;;;15.55;11.57;;;19.10;65.80;;;;;;5006589;28;20111;-65
2021/09/10 05:37:43;;;;;;;16.58;12.02;;;19.10;66.20;;;;;;5009938;28;20030;-65
2021/09/10 05:40:09;;;;;;;19.85;13.15;;;19.20;66.10;;;;;;5013316;28;20029;-65
2021/09/10 05:42:34;;;;;;;17.90;13.63;;;19.30;65.90;;;;;;5008514;28;20382;-65
2021/09/10 05:45:00;;;;;;;16.75;12.35;;;19.40;65.80;;;;;;5008539;28;20034;-64
2021/09/10 05:47:26;;;;;;;18.77;11.63;;;19.40;65.90;;;;;;5005385;28;20018;-66
2021/09/10 05:49:51;;;;;;;18.52;13.07;;;19.40;65.90;;;;;;5005639;28;20026;-67
2021/09/10 05:52:17;;;;;;;15.52;11.10;;;19.40;66.30;;;;;;5003727;28;20224;-67
2021/09/10 05:54:43;;;;;;;17.15;11.85;;;19.40;66.40;;;;;;5001944;28;20034;-67
2021/09/10 05:57:08;;;;;;;12.98;9.65;;;19.50;66.40;;;;;;5003119;28;20509;-67
2021/09/10 05:59:34;;;;;;;15.05;9.80;;;19.60;66.40;;;;;;4994689;28;20030;-67
2021/09/10 06:01:59;;;;;;;11.68;9.52;;;19.70;66.60;;;;;;4994159;28;20073;-67
2021/09/10 06:04:25;;;;;;;11.68;8.00;;;19.70;66.60;;;;;;4995194;28;20117;-68
2021/09/10 06:06:51;;;;;;;11.93;8.82;;;19.80;66.60;;;;;;4997370;28;20110;-64
2021/09/10 06:09:17;;;;;;;10.13;8.55;;;19.80;66.90;;;;;;4998632;28;20017;-67
2021/09/10 06:11:43;;;;;;;9.90;7.38;;;19.80;66.70;;;;;;4996970;28;20028;-66
2021/09/10 06:14:09;;;;;;;11.15;7.53;;;19.80;66.60;;;;;;4998922;28;20071;-66
2021/09/10 06:16:35;;;;;;;10.18;8.57;;;19.80;66.70;;;;;;5002787;28;20413;-66
2021/09/10 06:19:00;;;;;;;11.05;7.95;;;19.80;66.60;;;;;;5000413;28;20030;-66
2021/09/10 06:21:26;;;;;;;11.23;8.05;;;19.90;66.90;;;;;;4999983;28;20114;-66
2021/09/10 06:23:52;;;;;;;10.35;8.23;;;19.90;66.70;;;;;;4995662;28;20414;-65
2021/09/10 06:26:19;;;;;;;11.57;7.80;;;19.90;66.60;;;;;;4995726;28;20041;-66
2021/09/10 06:28:45;;;;;;;11.02;8.48;;;20.00;66.70;;;;;;4998041;28;20029;-65
2021/09/10 06:31:10;;;;;;;12.15;8.00;;;20.00;66.40;;;;;;5008612;28;20104;-66
2021/09/10 06:33:36;;;;;;;10.50;8.32;;;20.10;66.40;;;;;;5003243;28;20029;-62
2021/09/10 06:36:01;;;;;;;11.85;8.23;;;20.10;66.40;;;;;;5005309;28;20041;-63
2021/09/10 06:38:27;;;;;;;10.27;7.95;;;20.20;66.20;;;;;;5001894;28;20116;-64
2021/09/10 06:40:53;;;;;;;10.30;7.55;;;20.20;66.10;;;;;;5005611;28;20042;-63
2021/09/10 06:43:18;;;;;;;8.52;6.93;;;20.30;65.90;;;;;;5005789;28;20085;-63
2021/09/10 06:45:45;;;;;;;10.82;7.72;;;20.30;65.70;;;;;;5003120;28;20789;-64
2021/09/10 06:48:11;;;;;;;11.13;8.15;;;20.40;65.50;;;;;;5002131;28;20034;-64
2021/09/10 06:50:37;;;;;;;9.05;7.50;;;20.40;65.30;;;;;;5003685;28;20037;-64
2021/09/10 06:53:03;;;;;;;8.88;7.15;;;20.40;65.20;;;;;;5007102;28;20026;-64
2021/09/10 06:55:28;;;;;;;8.77;6.50;;;20.50;64.90;;;;;;5006987;28;20136;-62
2021/09/10 06:57:54;;;;;;;8.15;6.78;;;20.50;64.70;;;;;;5006658;28;20038;-61
2021/09/10 07:00:20;;;;;;;9.95;7.15;;;20.60;64.70;;;;;;5002674;28;20841;-63
2021/09/10 07:02:45;;;;;;;8.70;7.00;;;20.70;64.50;;;;;;5004650;28;20044;-62
2021/09/10 07:05:11;;;;;;;9.90;7.15;;;20.70;64.10;;;;;;5007844;28;21480;-62
2021/09/10 07:07:37;;;;;;;9.23;7.18;;;20.70;64.00;;;;;;4999311;28;20038;-62
2021/09/10 07:10:04;;;;;;;9.57;7.38;;;20.80;63.90;;;;;;5003791;28;20105;-62
2021/09/10 07:12:29;;;;;;;10.52;7.65;;;20.80;63.70;;;;;;5005226;28;20437;-63
2021/09/10 07:14:55;;;;;;;9.80;7.05;;;20.80;63.90;;;;;;5013119;28;20044;-62
2021/09/10 07:17:23;;;;;;;9.75;7.18;;;20.90;64.30;;;;;;5007410;28;20045;-64
2021/09/10 07:19:48;;;;;;;10.50;7.30;;;20.90;64.30;;;;;;5000760;28;20061;-65
2021/09/10 07:22:14;;;;;;;9.82;6.75;;;21.00;64.10;;;;;;4996831;28;20058;-64
2021/09/10 07:24:40;;;;;;;8.75;6.85;;;21.00;64.20;;;;;;5001668;28;20030;-64
2021/09/10 07:27:06;;;;;;;9.30;7.22;;;21.00;64.10;;;;;;5007425;28;20034;-64
2021/09/10 07:29:32;;;;;;;9.27;7.07;;;21.00;64.20;;;;;;5001721;28;20030;-64
2021/09/10 07:31:58;;;;;;;9.63;7.35;;;21.10;64.20;;;;;;5005485;28;20068;-63
2021/09/10 07:34:23;;;;;;;11.32;7.90;;;21.10;63.70;;;;;;4999640;28;20495;-65
2021/09/10 07:36:49;;;;;;;9.85;7.22;;;21.10;63.80;;;;;;5000119;28;20038;-64
2021/09/10 07:39:20;;;;;;;9.85;7.40;;;21.20;63.80;;;;;;4996454;28;20048;-63
2021/09/10 07:41:46;;;;;;;11.50;7.82;;;21.20;63.80;;;;;;4996738;28;20025;-64
2021/09/10 07:44:14;;;;;;;9.45;7.28;;;21.20;63.60;;;;;;4994425;28;20088;-61
2021/09/10 07:46:44;;;;;;;9.35;7.30;;;21.20;63.70;;;;;;4999498;28;20536;-62
2021/09/10 07:49:11;;;;;;;11.30;8.07;;;21.20;63.40;;;;;;4996226;28;20037;-62
2021/09/10 07:51:37;;;;;;;10.80;7.90;;;21.30;63.30;;;;;;4997826;28;20045;-61
2021/09/10 07:54:04;;;;;;;10.75;7.85;;;21.20;63.10;;;;;;4993312;28;20160;-63
2021/09/10 07:56:30;;;;;;;9.88;8.07;;;21.30;63.00;;;;;;4991338;28;20938;-63
2021/09/10 07:58:55;;;;;;;14.15;8.20;;;21.30;63.10;;;;;;4991296;28;20029;-64
2021/09/10 08:01:21;;;;;;;10.38;8.38;;;21.30;63.00;;;;;;4992243;28;20034;-63
2021/09/10 08:03:47;;;;;;;10.40;8.60;;;21.30;62.60;;;;;;4999913;28;20504;-63
2021/09/10 08:06:12;;;;;;;11.60;8.43;;;21.30;62.40;;;;;;4991652;28;20026;-64
2021/09/10 08:08:38;;;;;;;11.88;8.35;;;21.30;62.60;;;;;;4992846;28;20130;-64
2021/09/10 08:11:04;;;;;;;11.63;8.60;;;21.30;62.60;;;;;;5000275;28;20105;-63
2021/09/10 08:13:31;;;;;;;11.95;8.55;;;21.40;62.80;;;;;;4997129;28;20033;-63
2021/09/10 08:15:56;;;;;;;10.32;8.75;;;21.40;63.20;;;;;;4998253;28;20061;-63
2021/09/10 08:18:22;;;;;;;12.57;9.25;;;21.40;64.00;;;;;;4995876;28;20053;-63
2021/09/10 08:20:48;;;;;;;11.30;9.10;;;21.40;63.50;;;;;;4996382;28;20052;-64
2021/09/10 08:23:14;;;;;;;10.60;8.27;;;21.40;63.50;;;;;;4995840;28;20092;-63
2021/09/10 08:25:39;;;;;;;9.82;8.25;;;21.40;63.40;;;;;;4996501;28;20057;-63
2021/09/10 08:28:05;;;;;;;11.50;8.43;;;21.50;63.50;;;;;;4992385;28;20431;-64
2021/09/10 08:30:31;;;;;;;11.90;8.75;;;21.40;63.50;;;;;;4996293;28;20059;-63
2021/09/10 08:32:58;;;;;;;10.40;8.63;;;21.50;63.60;;;;;;4990741;28;20072;-63
2021/09/10 08:35:24;;;;;;;10.02;8.57;;;21.50;63.80;;;;;;4994684;28;20095;-64
2021/09/10 08:37:50;;;;;;;11.05;8.95;;;21.50;63.80;;;;;;4989230;28;20046;-63
2021/09/10 08:40:18;;;;;;;11.13;9.05;;;21.50;63.90;;;;;;4987763;28;20160;-63
2021/09/10 08:42:43;;;;;;;10.57;8.40;;;21.50;63.90;;;;;;4995036;28;20041;-64
2021/09/10 08:45:10;;;;;;;11.65;8.60;;;21.50;63.70;;;;;;4999304;28;20030;-66
2021/09/10 08:47:39;;;;;;;11.23;8.20;;;21.50;63.60;;;;;;4997102;28;20080;-64
2021/09/10 08:50:05;;;;;;;10.85;8.93;;;21.50;63.50;;;;;;4997536;28;20044;-63
2021/09/10 08:52:31;;;;;;;10.23;8.05;;;21.50;63.40;;;;;;5000542;28;20041;-63
2021/09/10 08:54:56;;;;;;;9.48;6.85;;;21.50;63.20;;;;;;4991404;28;20029;-63
2021/09/10 08:57:23;;;;;;;11.52;8.52;;;21.50;63.50;;;;;;4998769;28;20041;-63
2021/09/10 09:00:07;;;;;;;10.68;8.02;;;21.50;63.60;;;;;;4991387;28;20961;-63
2021/09/10 09:02:34;;;;;;;8.68;6.47;;;21.50;63.40;;;;;;4993523;28;20739;-63
2021/09/10 09:05:00;;;;;;;12.60;8.40;;;21.50;63.30;;;;;;4987551;28;20076;-63
2021/09/10 09:07:27;;;;;;;10.00;7.25;;;21.50;63.00;;;;;;4996787;28;20030;-64
2021/09/10 09:09:57;;;;;;;9.68;7.22;;;21.50;63.20;;;;;;4992963;28;20137;-63
2021/09/10 09:12:30;;;;;;;10.55;8.52;;;21.50;63.10;;;;;;4995069;28;20121;-63
2021/09/10 09:15:02;;;;;;;10.20;7.38;;;21.50;63.00;;;;;;4997151;28;20662;-63
2021/09/10 09:17:29;;;;;;;9.05;7.82;;;21.50;63.20;;;;;;4994751;28;20362;-63
2021/09/10 09:20:21;;;;;;;9.25;7.53;;;21.50;63.20;;;;;;4993732;28;20057;-63
2021/09/10 09:23:12;;;;;;;10.98;7.57;;;21.50;63.20;;;;;;4991905;28;20078;-63
2021/09/10 09:25:47;;;;;;;8.65;6.80;;;21.50;63.00;;;;;;4994009;28;20049;-63
2021/09/10 09:28:24;;;;;;;10.50;6.80;;;21.50;62.60;;;;;;4988186;28;20676;-64
2021/09/10 09:31:12;;;;;;;7.93;6.32;;;21.60;62.40;;;;;;4992498;28;20022;-63
2021/09/10 09:33:41;;;;;;;10.32;6.50;;;21.60;61.90;;;;;;4992797;28;20026;-64
2021/09/10 09:36:11;;;;;;;8.38;6.75;;;21.60;61.80;;;;;;4988525;28;20026;-63
2021/09/10 09:38:40;;;;;;;9.52;7.38;;;21.60;62.10;;;;;;5000781;28;20786;-63
2021/09/10 09:41:12;;;;;;;10.10;6.90;;;21.60;61.90;;;;;;4991187;28;20033;-64
2021/09/10 09:43:41;;;;;;;8.77;6.38;;;21.60;61.90;;;;;;4992759;28;20030;-64
2021/09/10 09:46:21;;;;;;;8.40;6.45;;;21.60;61.80;;;;;;4989993;28;20128;-63
2021/09/10 09:48:50;;;;;;;8.38;6.20;;;21.60;61.80;;;;;;5006527;28;20032;-63
2021/09/10 09:51:19;;;;;;;7.68;6.60;;;21.60;62.10;;;;;;4993316;28;20560;-64
2021/09/10 09:53:45;;;;;;;9.15;6.55;;;21.60;61.70;;;;;;4996000;28;20033;-63
2021/09/10 09:56:11;;;;;;;10.52;6.75;;;21.60;61.70;;;;;;4994625;28;20038;-64
2021/09/10 09:58:38;;;;;;;8.73;6.95;;;21.60;62.10;;;;;;4987628;28;20033;-63
2021/09/10 10:01:06;;;;;;;9.20;6.60;;;21.60;62.10;;;;;;4998378;28;20029;-64
2021/09/10 10:03:32;;;;;;;10.05;6.97;;;21.70;62.20;;;;;;4994571;28;20045;-64
2021/09/10 10:06:03;;;;;;;9.05;6.70;;;21.70;62.00;;;;;;4992272;28;20051;-64
2021/09/10 10:08:41;;;;;;;9.90;7.15;;;21.70;61.90;;;;;;4989164;28;20104;-64
2021/09/10 10:11:12;;;;;;;10.43;7.38;;;21.70;62.20;;;;;;5000444;28;20029;-63
2021/09/10 10:13:38;;;;;;;9.55;7.38;;;21.70;62.30;;;;;;4996385;28;20721;-63
2021/09/10 10:16:04;;;;;;;9.68;6.72;;;21.70;62.30;;;;;;4995224;28;20092;-63
2021/09/10 10:18:43;;;;;;;8.43;6.78;;;21.80;62.10;;;;;;4994002;28;20105;-64
2021/09/10 10:21:13;;;;;;;8.05;6.18;;;21.80;61.80;;;;;;4993738;28;20042;-63
2021/09/10 10:23:42;;;;;;;7.07;5.80;;;21.80;61.60;;;;;;4997554;28;20072;-63
2021/09/10 10:26:13;;;;;;;8.77;6.10;;;21.80;61.70;;;;;;4997141;28;20038;-63
2021/09/10 10:28:43;;;;;;;8.18;5.90;;;21.90;61.10;;;;;;5004888;28;20036;-63
2021/09/10 10:31:10;;;;;;;8.82;5.90;;;21.80;60.80;;;;;;5000180;28;20410;-64
2021/09/10 10:33:35;;;;;;;7.93;5.88;;;21.80;60.70;;;;;;5003468;28;20022;-64
2021/09/10 10:36:31;;;;;;;9.00;6.10;;;21.90;60.90;;;;;;5000308;28;20036;-64
2021/09/10 10:39:20;;;;;;;8.68;6.38;;;21.90;60.90;;;;;;5003000;28;20053;-64
2021/09/10 10:42:15;;;;;;;9.48;6.18;;;21.90;60.70;;;;;;4996081;28;20177;-64
2021/09/10 10:44:41;;;;;;;9.95;5.97;;;21.90;60.40;;;;;;5007320;28;20054;-64
2021/09/10 10:47:14;;;;;;;7.15;5.80;;;22.00;60.30;;;;;;4999241;28;20045;-64
2021/09/10 10:49:45;;;;;;;6.75;5.95;;;22.00;60.00;;;;;;5003354;28;20077;-64
2021/09/10 10:52:23;;;;;;;7.20;6.00;;;22.00;59.50;;;;;;5000174;28;20076;-64
2021/09/10 10:55:14;;;;;;;8.35;6.15;;;22.00;59.40;;;;;;4996424;28;20041;-63
2021/09/10 10:57:40;;;;;;;8.90;6.15;;;22.10;59.30;;;;;;5001130;28;20046;-65
2021/09/10 11:00:28;;;;;;;6.13;5.07;;;22.00;58.80;;;;;;4995639;28;20055;-65
2021/09/10 11:03:12;;;;;;;7.55;5.28;;;22.10;58.60;;;;;;5007131;28;20038;-65
2021/09/10 11:05:43;;;;;;;7.43;5.07;;;22.10;58.30;;;;;;4995358;28;20049;-66
2021/09/10 11:08:09;;;;;;;8.30;5.50;;;22.10;58.00;;;;;;4997116;28;20421;-64
2021/09/10 11:10:34;;;;;;;6.22;4.97;;;22.10;58.00;;;;;;4997409;28;20034;-64
2021/09/10 11:13:00;;;;;;;7.25;5.50;;;22.10;57.80;;;;;;4997988;28;20030;-64
2021/09/10 11:15:37;;;;;;;7.57;5.13;;;22.10;57.60;;;;;;5002409;28;20445;-64
2021/09/10 11:18:04;;;;;;;6.68;5.30;;;22.20;57.40;;;;;;5003977;28;20058;-65
2021/09/10 11:20:48;;;;;;;7.20;5.38;;;22.20;57.10;;;;;;4996456;28;20115;-65
2021/09/10 11:23:36;;;;;;;6.65;5.50;;;22.20;56.70;;;;;;4997098;28;20521;-64
2021/09/10 11:26:03;;;;;;;5.85;4.85;;;22.20;56.50;;;;;;4981530;28;20025;-64
2021/09/10 11:28:35;;;;;;;7.10;5.18;;;22.30;56.50;;;;;;4988358;28;20050;-64
2021/09/10 11:31:01;;;;;;;7.90;6.28;;;22.30;56.30;;;;;;5021490;28;20037;-64
2021/09/10 11:33:26;;;;;;;7.53;6.15;;;22.30;56.60;;;;;;4993959;28;20037;-64
2021/09/10 11:35:54;;;;;;;5.80;4.82;;;22.30;56.80;;;;;;4992590;28;20041;-63
2021/09/10 11:38:25;;;;;;;6.72;4.95;;;22.40;57.20;;;;;;4999893;28;20558;-65
2021/09/10 11:40:53;;;;;;;5.95;4.90;;;22.40;57.70;;;;;;4993247;28;20532;-64
2021/09/10 11:43:29;;;;;;;6.20;5.22;;;22.40;57.80;;;;;;4990916;28;20033;-63
2021/09/10 11:46:00;;;;;;;6.43;5.13;;;22.40;57.80;;;;;;4991188;28;20121;-63
2021/09/10 11:48:31;;;;;;;6.18;5.10;;;22.40;57.80;;;;;;4988601;28;20034;-64
2021/09/10 11:51:02;;;;;;;6.97;5.45;;;22.40;57.90;;;;;;5002810;28;20525;-64
2021/09/10 11:53:34;;;;;;;6.57;5.32;;;22.40;58.60;;;;;;4994291;28;20040;-65
2021/09/10 11:56:06;;;;;;;7.40;5.50;;;22.40;58.00;;;;;;4996326;28;20038;-65
2021/09/10 11:58:50;;;;;;;6.43;5.20;;;22.40;58.30;;;;;;4989803;28;20057;-65
2021/09/10 12:01:19;;;;;;;6.40;5.57;;;22.50;58.40;;;;;;4998375;28;20034;-65
2021/09/10 12:03:57;;;;;;;6.93;4.75;;;22.40;58.60;;;;;;4996748;28;20073;-65
2021/09/10 12:06:29;;;;;;;6.45;5.07;;;22.50;58.00;;;;;;4995043;28;21084;-64
2021/09/10 12:09:10;;;;;;;6.50;5.47;;;22.50;57.50;;;;;;4997199;28;20061;-64
2021/09/10 12:11:38;;;;;;;7.95;6.00;;;22.50;57.30;;;;;;4991348;28;20105;-64
2021/09/10 12:14:15;;;;;;;6.10;5.18;;;22.50;57.10;;;;;;4990111;28;20906;-65
2021/09/10 12:16:41;;;;;;;6.38;5.15;;;22.50;56.90;;;;;;4989617;28;20718;-65
2021/09/10 12:19:06;;;;;;;7.97;5.70;;;22.50;56.90;;;;;;4992817;28;20022;-65
2021/09/10 12:21:34;;;;;;;6.68;5.57;;;22.50;57.20;;;;;;4988084;28;20046;-65
2021/09/10 12:24:11;;;;;;;7.00;5.45;;;22.50;57.70;;;;;;4993302;28;20025;-65
2021/09/10 12:26:54;;;;;;;8.75;5.65;;;22.60;58.00;;;;;;4989933;28;20037;-65
2021/09/10 12:29:25;;;;;;;6.68;5.50;;;22.60;58.00;;;;;;4989849;28;20467;-65
2021/09/10 12:31:52;;;;;;;7.18;5.32;;;22.60;57.80;;;;;;4994579;28;20057;-66
2021/09/10 12:34:18;;;;;;;8.25;5.72;;;22.60;57.70;;;;;;4989478;28;20117;-64
2021/09/10 12:36:46;;;;;;;6.13;5.50;;;22.60;57.60;;;;;;4995532;28;20138;-64
2021/09/10 12:39:15;;;;;;;7.78;5.38;;;22.60;57.50;;;;;;4985750;28;20017;-64